sensor_id;sensor_type;location;lat;lon;timestamp;P1;durP1;ratioP1;P2;durP2;ratioP2
44110;SDS011;29774;52.664;5.074;2023-01-29T00:00:01;4.35;;;3.33;;
44110;SDS011;29774;52.664;5.074;2023-01-29T00:02:34;4.15;;;3.00;;
44110;SDS011;29774;52.664;5.074;2023-01-29T00:05:00;6.30;;;3.60;;
44110;SDS011;29774;52.664;5.074;2023-01-29T00:07:28;6.07;;;3.38;;
44110;SDS011;29774;52.664;5.074;2023-01-29T00:09:54;5.32;;;3.30;;
44110;SDS011;29774;52.664;5.074;2023-01-29T00:12:19;6.47;;;3.75;;
44110;SDS011;29774;52.664;5.074;2023-01-29T00:14:45;5.38;;;3.53;;
44110;SDS011;29774;52.664;5.074;2023-01-29T00:17:10;6.38;;;3.63;;
44110;SDS011;29774;52.664;5.074;2023-01-29T00:19:36;3.67;;;3.38;;
44110;SDS011;29774;52.664;5.074;2023-01-29T00:22:01;3.72;;;3.25;;
44110;SDS011;29774;52.664;5.074;2023-01-29T00:24:27;5.03;;;3.97;;
44110;SDS011;29774;52.664;5.074;2023-01-29T00:26:53;6.53;;;3.40;;
44110;SDS011;29774;52.664;5.074;2023-01-29T00:29:18;3.65;;;3.30;;
44110;SDS011;29774;52.664;5.074;2023-01-29T00:31:45;5.47;;;3.95;;
44110;SDS011;29774;52.664;5.074;2023-01-29T00:34:12;5.45;;;4.00;;
44110;SDS011;29774;52.664;5.074;2023-01-29T00:36:38;5.10;;;3.95;;
44110;SDS011;29774;52.664;5.074;2023-01-29T00:39:03;5.25;;;4.22;;
44110;SDS011;29774;52.664;5.074;2023-01-29T00:41:34;4.40;;;3.70;;
44110;SDS011;29774;52.664;5.074;2023-01-29T00:44:19;5.13;;;3.83;;
44110;SDS011;29774;52.664;5.074;2023-01-29T00:47:03;5.93;;;4.07;;
44110;SDS011;29774;52.664;5.074;2023-01-29T00:49:49;5.63;;;3.80;;
44110;SDS011;29774;52.664;5.074;2023-01-29T00:52:15;4.15;;;3.78;;
44110;SDS011;29774;52.664;5.074;2023-01-29T00:54:50;4.63;;;3.80;;
44110;SDS011;29774;52.664;5.074;2023-01-29T00:57:16;6.65;;;3.85;;
44110;SDS011;29774;52.664;5.074;2023-01-29T00:59:42;3.92;;;3.63;;
44110;SDS011;29774;52.664;5.074;2023-01-29T01:02:07;5.03;;;3.88;;
44110;SDS011;29774;52.664;5.074;2023-01-29T01:04:52;7.70;;;4.97;;
44110;SDS011;29774;52.664;5.074;2023-01-29T01:07:17;4.13;;;3.72;;
44110;SDS011;29774;52.664;5.074;2023-01-29T01:09:43;5.07;;;4.07;;
44110;SDS011;29774;52.664;5.074;2023-01-29T01:12:27;4.93;;;4.03;;
44110;SDS011;29774;52.664;5.074;2023-01-29T01:14:53;5.20;;;3.90;;
44110;SDS011;29774;52.664;5.074;2023-01-29T01:17:19;5.15;;;4.22;;
44110;SDS011;29774;52.664;5.074;2023-01-29T01:19:44;6.35;;;4.13;;
44110;SDS011;29774;52.664;5.074;2023-01-29T01:22:10;6.32;;;4.78;;
44110;SDS011;29774;52.664;5.074;2023-01-29T01:24:36;5.05;;;4.47;;
44110;SDS011;29774;52.664;5.074;2023-01-29T01:27:02;5.45;;;4.43;;
44110;SDS011;29774;52.664;5.074;2023-01-29T01:29:28;7.93;;;4.70;;
44110;SDS011;29774;52.664;5.074;2023-01-29T01:31:53;5.15;;;4.25;;
44110;SDS011;29774;52.664;5.074;2023-01-29T01:34:19;5.18;;;4.57;;
44110;SDS011;29774;52.664;5.074;2023-01-29T01:36:46;6.25;;;4.53;;
44110;SDS011;29774;52.664;5.074;2023-01-29T01:39:12;5.97;;;4.10;;
44110;SDS011;29774;52.664;5.074;2023-01-29T01:41:37;5.35;;;4.40;;
44110;SDS011;29774;52.664;5.074;2023-01-29T01:44:03;5.18;;;4.63;;
44110;SDS011;29774;52.664;5.074;2023-01-29T01:46:34;5.53;;;4.32;;
44110;SDS011;29774;52.664;5.074;2023-01-29T01:49:04;5.07;;;4.57;;
44110;SDS011;29774;52.664;5.074;2023-01-29T01:51:35;9.07;;;4.45;;
44110;SDS011;29774;52.664;5.074;2023-01-29T01:54:11;5.18;;;4.57;;
44110;SDS011;29774;52.664;5.074;2023-01-29T01:56:44;5.65;;;4.28;;
44110;SDS011;29774;52.664;5.074;2023-01-29T01:59:16;5.00;;;4.50;;
44110;SDS011;29774;52.664;5.074;2023-01-29T02:01:43;5.70;;;4.55;;
44110;SDS011;29774;52.664;5.074;2023-01-29T02:04:15;4.53;;;4.13;;
44110;SDS011;29774;52.664;5.074;2023-01-29T02:07:03;6.43;;;4.40;;
44110;SDS011;29774;52.664;5.074;2023-01-29T02:09:51;4.53;;;4.13;;
44110;SDS011;29774;52.664;5.074;2023-01-29T02:12:22;5.30;;;4.70;;
44110;SDS011;29774;52.664;5.074;2023-01-29T02:14:47;9.07;;;4.70;;
44110;SDS011;29774;52.664;5.074;2023-01-29T02:17:15;5.32;;;4.82;;
44110;SDS011;29774;52.664;5.074;2023-01-29T02:19:46;6.95;;;5.05;;
44110;SDS011;29774;52.664;5.074;2023-01-29T02:33:34;5.07;;;4.40;;
44110;SDS011;29774;52.664;5.074;2023-01-29T02:36:26;5.10;;;4.53;;
44110;SDS011;29774;52.664;5.074;2023-01-29T02:39:00;5.35;;;4.50;;
44110;SDS011;29774;52.664;5.074;2023-01-29T02:41:41;4.60;;;4.20;;
44110;SDS011;29774;52.664;5.074;2023-01-29T02:44:15;5.38;;;4.40;;
44110;SDS011;29774;52.664;5.074;2023-01-29T02:47:03;5.22;;;4.72;;
44110;SDS011;29774;52.664;5.074;2023-01-29T02:49:50;5.05;;;4.10;;
44110;SDS011;29774;52.664;5.074;2023-01-29T02:52:38;8.00;;;5.07;;
44110;SDS011;29774;52.664;5.074;2023-01-29T02:55:27;7.80;;;4.88;;
44110;SDS011;29774;52.664;5.074;2023-01-29T02:58:10;6.88;;;4.68;;
44110;SDS011;29774;52.664;5.074;2023-01-29T03:00:52;5.03;;;4.53;;
44110;SDS011;29774;52.664;5.074;2023-01-29T03:03:23;7.88;;;5.10;;
44110;SDS011;29774;52.664;5.074;2023-01-29T03:08:32;9.15;;;5.82;;
44110;SDS011;29774;52.664;5.074;2023-01-29T03:11:07;6.93;;;4.82;;
44110;SDS011;29774;52.664;5.074;2023-01-29T03:16:16;6.97;;;5.88;;
44110;SDS011;29774;52.664;5.074;2023-01-29T03:19:05;6.75;;;5.47;;
44110;SDS011;29774;52.664;5.074;2023-01-29T03:21:54;8.32;;;6.13;;
44110;SDS011;29774;52.664;5.074;2023-01-29T03:24:47;7.57;;;5.57;;
44110;SDS011;29774;52.664;5.074;2023-01-29T03:28:16;7.50;;;6.53;;
44110;SDS011;29774;52.664;5.074;2023-01-29T03:30:43;8.27;;;6.35;;
44110;SDS011;29774;52.664;5.074;2023-01-29T03:34:02;6.75;;;5.65;;
44110;SDS011;29774;52.664;5.074;2023-01-29T03:36:35;6.63;;;5.75;;
44110;SDS011;29774;52.664;5.074;2023-01-29T03:39:09;7.28;;;6.18;;
44110;SDS011;29774;52.664;5.074;2023-01-29T03:41:37;10.43;;;6.22;;
44110;SDS011;29774;52.664;5.074;2023-01-29T03:47:21;8.68;;;6.35;;
44110;SDS011;29774;52.664;5.074;2023-01-29T03:50:06;7.85;;;6.30;;
44110;SDS011;29774;52.664;5.074;2023-01-29T03:52:55;8.40;;;6.80;;
44110;SDS011;29774;52.664;5.074;2023-01-29T03:55:34;10.88;;;7.00;;
44110;SDS011;29774;52.664;5.074;2023-01-29T03:58:19;9.68;;;6.38;;
44110;SDS011;29774;52.664;5.074;2023-01-29T04:03:52;8.90;;;7.10;;
44110;SDS011;29774;52.664;5.074;2023-01-29T04:06:28;7.07;;;5.82;;
44110;SDS011;29774;52.664;5.074;2023-01-29T04:09:13;9.50;;;6.95;;
44110;SDS011;29774;52.664;5.074;2023-01-29T04:11:57;9.88;;;7.30;;
44110;SDS011;29774;52.664;5.074;2023-01-29T04:14:34;7.07;;;6.28;;
44110;SDS011;29774;52.664;5.074;2023-01-29T04:17:02;7.47;;;6.40;;
44110;SDS011;29774;52.664;5.074;2023-01-29T04:19:43;9.13;;;7.10;;
44110;SDS011;29774;52.664;5.074;2023-01-29T04:24:41;9.18;;;7.78;;
44110;SDS011;29774;52.664;5.074;2023-01-29T04:32:31;8.45;;;6.75;;
44110;SDS011;29774;52.664;5.074;2023-01-29T04:35:22;8.60;;;7.05;;
44110;SDS011;29774;52.664;5.074;2023-01-29T04:38:17;8.73;;;7.43;;
44110;SDS011;29774;52.664;5.074;2023-01-29T04:41:10;9.55;;;7.72;;
44110;SDS011;29774;52.664;5.074;2023-01-29T04:46:26;8.90;;;7.95;;
44110;SDS011;29774;52.664;5.074;2023-01-29T04:49:13;11.18;;;8.82;;
44110;SDS011;29774;52.664;5.074;2023-01-29T04:55:02;14.13;;;9.00;;
44110;SDS011;29774;52.664;5.074;2023-01-29T04:57:44;11.68;;;8.23;;
44110;SDS011;29774;52.664;5.074;2023-01-29T05:00:41;11.60;;;8.80;;
44110;SDS011;29774;52.664;5.074;2023-01-29T05:03:09;11.20;;;8.75;;
44110;SDS011;29774;52.664;5.074;2023-01-29T05:05:38;10.77;;;8.00;;
44110;SDS011;29774;52.664;5.074;2023-01-29T05:08:07;11.80;;;9.27;;
44110;SDS011;29774;52.664;5.074;2023-01-29T05:10:35;10.98;;;8.95;;
44110;SDS011;29774;52.664;5.074;2023-01-29T05:13:02;11.45;;;9.15;;
44110;SDS011;29774;52.664;5.074;2023-01-29T05:15:34;12.02;;;9.10;;
44110;SDS011;29774;52.664;5.074;2023-01-29T05:18:13;12.32;;;9.27;;
44110;SDS011;29774;52.664;5.074;2023-01-29T05:20:39;12.75;;;9.15;;
44110;SDS011;29774;52.664;5.074;2023-01-29T05:23:16;11.77;;;9.30;;
44110;SDS011;29774;52.664;5.074;2023-01-29T05:25:43;12.48;;;9.07;;
44110;SDS011;29774;52.664;5.074;2023-01-29T05:28:10;12.30;;;9.43;;
44110;SDS011;29774;52.664;5.074;2023-01-29T05:30:40;11.77;;;9.40;;
44110;SDS011;29774;52.664;5.074;2023-01-29T05:33:30;12.75;;;9.63;;
44110;SDS011;29774;52.664;5.074;2023-01-29T05:35:54;15.18;;;10.98;;
44110;SDS011;29774;52.664;5.074;2023-01-29T05:38:22;12.27;;;9.20;;
44110;SDS011;29774;52.664;5.074;2023-01-29T05:40:48;11.80;;;9.05;;
44110;SDS011;29774;52.664;5.074;2023-01-29T05:43:18;13.75;;;9.63;;
44110;SDS011;29774;52.664;5.074;2023-01-29T05:45:52;11.27;;;9.20;;
44110;SDS011;29774;52.664;5.074;2023-01-29T05:48:19;15.45;;;10.50;;
44110;SDS011;29774;52.664;5.074;2023-01-29T05:50:45;13.82;;;10.88;;
44110;SDS011;29774;52.664;5.074;2023-01-29T05:53:11;12.35;;;10.00;;
44110;SDS011;29774;52.664;5.074;2023-01-29T05:55:36;12.00;;;10.27;;
44110;SDS011;29774;52.664;5.074;2023-01-29T05:58:02;16.52;;;10.70;;
44110;SDS011;29774;52.664;5.074;2023-01-29T06:00:28;13.73;;;10.88;;
44110;SDS011;29774;52.664;5.074;2023-01-29T06:02:53;11.85;;;10.02;;
44110;SDS011;29774;52.664;5.074;2023-01-29T06:05:19;12.85;;;10.20;;
44110;SDS011;29774;52.664;5.074;2023-01-29T06:07:44;13.32;;;10.30;;
44110;SDS011;29774;52.664;5.074;2023-01-29T06:10:14;16.90;;;11.25;;
44110;SDS011;29774;52.664;5.074;2023-01-29T06:12:41;13.45;;;10.70;;
44110;SDS011;29774;52.664;5.074;2023-01-29T06:15:08;15.30;;;11.20;;
44110;SDS011;29774;52.664;5.074;2023-01-29T06:17:34;15.18;;;10.38;;
44110;SDS011;29774;52.664;5.074;2023-01-29T06:20:00;15.18;;;10.50;;
44110;SDS011;29774;52.664;5.074;2023-01-29T06:22:26;16.85;;;11.43;;
44110;SDS011;29774;52.664;5.074;2023-01-29T06:24:51;15.20;;;11.23;;
44110;SDS011;29774;52.664;5.074;2023-01-29T06:27:17;15.65;;;11.88;;
44110;SDS011;29774;52.664;5.074;2023-01-29T06:29:42;15.48;;;12.38;;
44110;SDS011;29774;52.664;5.074;2023-01-29T06:32:08;15.40;;;11.43;;
44110;SDS011;29774;52.664;5.074;2023-01-29T06:34:34;15.55;;;11.73;;
44110;SDS011;29774;52.664;5.074;2023-01-29T06:36:59;19.60;;;12.10;;
44110;SDS011;29774;52.664;5.074;2023-01-29T06:39:25;20.20;;;12.45;;
44110;SDS011;29774;52.664;5.074;2023-01-29T06:41:50;17.75;;;11.88;;
44110;SDS011;29774;52.664;5.074;2023-01-29T06:44:16;17.92;;;11.98;;
44110;SDS011;29774;52.664;5.074;2023-01-29T06:46:41;18.10;;;12.50;;
44110;SDS011;29774;52.664;5.074;2023-01-29T06:49:07;16.95;;;11.27;;
44110;SDS011;29774;52.664;5.074;2023-01-29T06:51:33;19.75;;;12.35;;
44110;SDS011;29774;52.664;5.074;2023-01-29T06:53:58;15.77;;;12.68;;
44110;SDS011;29774;52.664;5.074;2023-01-29T06:56:24;17.80;;;13.07;;
44110;SDS011;29774;52.664;5.074;2023-01-29T06:58:50;20.90;;;13.50;;
44110;SDS011;29774;52.664;5.074;2023-01-29T07:01:15;13.65;;;10.38;;
44110;SDS011;29774;52.664;5.074;2023-01-29T07:03:41;16.85;;;12.40;;
44110;SDS011;29774;52.664;5.074;2023-01-29T07:06:07;19.17;;;12.88;;
44110;SDS011;29774;52.664;5.074;2023-01-29T07:08:36;19.77;;;12.43;;
44110;SDS011;29774;52.664;5.074;2023-01-29T07:11:03;13.23;;;9.50;;
44110;SDS011;29774;52.664;5.074;2023-01-29T07:13:29;15.48;;;12.65;;
44110;SDS011;29774;52.664;5.074;2023-01-29T07:15:58;17.83;;;11.70;;
44110;SDS011;29774;52.664;5.074;2023-01-29T07:18:25;13.50;;;10.02;;
44110;SDS011;29774;52.664;5.074;2023-01-29T07:20:53;11.90;;;8.77;;
44110;SDS011;29774;52.664;5.074;2023-01-29T07:23:20;17.58;;;12.18;;
44110;SDS011;29774;52.664;5.074;2023-01-29T07:25:45;15.82;;;11.10;;
44110;SDS011;29774;52.664;5.074;2023-01-29T07:28:13;18.30;;;13.77;;
44110;SDS011;29774;52.664;5.074;2023-01-29T07:30:39;17.30;;;11.35;;
44110;SDS011;29774;52.664;5.074;2023-01-29T07:33:06;22.05;;;13.35;;
44110;SDS011;29774;52.664;5.074;2023-01-29T07:35:36;16.25;;;11.70;;
44110;SDS011;29774;52.664;5.074;2023-01-29T07:38:03;21.58;;;14.80;;
44110;SDS011;29774;52.664;5.074;2023-01-29T07:40:29;19.48;;;13.20;;
44110;SDS011;29774;52.664;5.074;2023-01-29T07:42:58;17.95;;;12.68;;
44110;SDS011;29774;52.664;5.074;2023-01-29T07:45:28;17.38;;;12.13;;
44110;SDS011;29774;52.664;5.074;2023-01-29T07:47:54;19.98;;;13.70;;
44110;SDS011;29774;52.664;5.074;2023-01-29T07:50:24;20.67;;;13.70;;
44110;SDS011;29774;52.664;5.074;2023-01-29T07:52:50;18.75;;;12.98;;
44110;SDS011;29774;52.664;5.074;2023-01-29T07:55:18;17.55;;;12.45;;
44110;SDS011;29774;52.664;5.074;2023-01-29T07:57:44;18.23;;;13.55;;
44110;SDS011;29774;52.664;5.074;2023-01-29T08:00:10;22.23;;;14.98;;
44110;SDS011;29774;52.664;5.074;2023-01-29T08:02:37;21.25;;;14.07;;
44110;SDS011;29774;52.664;5.074;2023-01-29T08:05:03;20.55;;;13.70;;
44110;SDS011;29774;52.664;5.074;2023-01-29T08:07:29;20.13;;;12.73;;
44110;SDS011;29774;52.664;5.074;2023-01-29T08:09:54;17.00;;;12.95;;
44110;SDS011;29774;52.664;5.074;2023-01-29T08:12:20;21.90;;;14.48;;
44110;SDS011;29774;52.664;5.074;2023-01-29T08:14:46;20.55;;;14.90;;
44110;SDS011;29774;52.664;5.074;2023-01-29T08:17:12;23.25;;;13.43;;
44110;SDS011;29774;52.664;5.074;2023-01-29T08:19:38;20.73;;;14.63;;
44110;SDS011;29774;52.664;5.074;2023-01-29T08:22:04;22.25;;;14.07;;
44110;SDS011;29774;52.664;5.074;2023-01-29T08:24:30;22.25;;;14.15;;
44110;SDS011;29774;52.664;5.074;2023-01-29T08:26:56;19.92;;;14.50;;
44110;SDS011;29774;52.664;5.074;2023-01-29T08:29:22;18.52;;;12.82;;
44110;SDS011;29774;52.664;5.074;2023-01-29T08:31:47;20.15;;;14.32;;
44110;SDS011;29774;52.664;5.074;2023-01-29T08:34:13;15.48;;;10.80;;
44110;SDS011;29774;52.664;5.074;2023-01-29T08:36:39;22.38;;;14.45;;
44110;SDS011;29774;52.664;5.074;2023-01-29T08:39:05;23.17;;;15.00;;
44110;SDS011;29774;52.664;5.074;2023-01-29T08:41:30;20.42;;;13.55;;
44110;SDS011;29774;52.664;5.074;2023-01-29T08:43:56;17.17;;;11.27;;
44110;SDS011;29774;52.664;5.074;2023-01-29T08:46:22;23.13;;;14.60;;
44110;SDS011;29774;52.664;5.074;2023-01-29T08:48:48;15.45;;;10.50;;
44110;SDS011;29774;52.664;5.074;2023-01-29T08:51:13;22.23;;;15.07;;
44110;SDS011;29774;52.664;5.074;2023-01-29T08:53:39;19.15;;;14.02;;
44110;SDS011;29774;52.664;5.074;2023-01-29T08:56:05;19.35;;;12.45;;
44110;SDS011;29774;52.664;5.074;2023-01-29T08:58:30;22.20;;;14.85;;
44110;SDS011;29774;52.664;5.074;2023-01-29T09:01:03;21.05;;;15.38;;
44110;SDS011;29774;52.664;5.074;2023-01-29T09:03:30;21.73;;;14.93;;
44110;SDS011;29774;52.664;5.074;2023-01-29T09:05:56;22.23;;;15.45;;
44110;SDS011;29774;52.664;5.074;2023-01-29T09:08:21;15.27;;;11.07;;
44110;SDS011;29774;52.664;5.074;2023-01-29T09:10:47;20.98;;;15.20;;
44110;SDS011;29774;52.664;5.074;2023-01-29T09:13:13;22.10;;;14.45;;
44110;SDS011;29774;52.664;5.074;2023-01-29T09:15:38;19.77;;;13.10;;
44110;SDS011;29774;52.664;5.074;2023-01-29T09:18:04;20.50;;;12.95;;
44110;SDS011;29774;52.664;5.074;2023-01-29T09:20:30;17.13;;;11.27;;
44110;SDS011;29774;52.664;5.074;2023-01-29T09:22:55;22.33;;;14.95;;
44110;SDS011;29774;52.664;5.074;2023-01-29T09:25:23;18.58;;;12.77;;
44110;SDS011;29774;52.664;5.074;2023-01-29T09:27:48;20.23;;;12.50;;
44110;SDS011;29774;52.664;5.074;2023-01-29T09:30:14;21.50;;;15.25;;
44110;SDS011;29774;52.664;5.074;2023-01-29T09:32:41;13.65;;;9.82;;
44110;SDS011;29774;52.664;5.074;2023-01-29T09:35:06;14.18;;;10.52;;
44110;SDS011;29774;52.664;5.074;2023-01-29T09:37:33;18.27;;;12.10;;
44110;SDS011;29774;52.664;5.074;2023-01-29T09:39:58;18.63;;;12.65;;
44110;SDS011;29774;52.664;5.074;2023-01-29T09:42:28;17.75;;;13.05;;
44110;SDS011;29774;52.664;5.074;2023-01-29T09:47:35;14.02;;;10.30;;
44110;SDS011;29774;52.664;5.074;2023-01-29T09:52:32;16.15;;;12.30;;
44110;SDS011;29774;52.664;5.074;2023-01-29T09:55:06;18.45;;;11.18;;
44110;SDS011;29774;52.664;5.074;2023-01-29T10:00:38;15.02;;;11.55;;
44110;SDS011;29774;52.664;5.074;2023-01-29T10:03:35;13.02;;;9.32;;
44110;SDS011;29774;52.664;5.074;2023-01-29T10:06:18;14.98;;;9.73;;
44110;SDS011;29774;52.664;5.074;2023-01-29T10:11:53;15.75;;;10.18;;
44110;SDS011;29774;52.664;5.074;2023-01-29T10:19:52;18.20;;;10.88;;
44110;SDS011;29774;52.664;5.074;2023-01-29T10:22:30;14.18;;;9.73;;
44110;SDS011;29774;52.664;5.074;2023-01-29T10:25:18;17.63;;;10.77;;
44110;SDS011;29774;52.664;5.074;2023-01-29T10:27:56;14.00;;;10.90;;
44110;SDS011;29774;52.664;5.074;2023-01-29T10:32:58;16.30;;;11.68;;
44110;SDS011;29774;52.664;5.074;2023-01-29T10:35:32;12.88;;;9.00;;
44110;SDS011;29774;52.664;5.074;2023-01-29T10:38:11;13.80;;;8.50;;
44110;SDS011;29774;52.664;5.074;2023-01-29T10:43:54;10.98;;;8.25;;
44110;SDS011;29774;52.664;5.074;2023-01-29T10:52:07;8.40;;;5.47;;
44110;SDS011;29774;52.664;5.074;2023-01-29T10:55:01;7.82;;;5.97;;
44110;SDS011;29774;52.664;5.074;2023-01-29T11:00:34;8.02;;;5.50;;
44110;SDS011;29774;52.664;5.074;2023-01-29T11:03:13;7.10;;;5.55;;
44110;SDS011;29774;52.664;5.074;2023-01-29T11:05:48;7.88;;;5.22;;
44110;SDS011;29774;52.664;5.074;2023-01-29T11:08:20;7.07;;;5.13;;
44110;SDS011;29774;52.664;5.074;2023-01-29T11:13:32;6.45;;;4.60;;
44110;SDS011;29774;52.664;5.074;2023-01-29T11:16:19;7.38;;;4.35;;
44110;SDS011;29774;52.664;5.074;2023-01-29T11:21:16;7.07;;;3.55;;
44110;SDS011;29774;52.664;5.074;2023-01-29T11:23:42;7.05;;;4.88;;
44110;SDS011;29774;52.664;5.074;2023-01-29T11:26:09;8.32;;;4.82;;
44110;SDS011;29774;52.664;5.074;2023-01-29T11:28:38;9.95;;;5.07;;
44110;SDS011;29774;52.664;5.074;2023-01-29T11:31:16;9.07;;;5.22;;
44110;SDS011;29774;52.664;5.074;2023-01-29T11:33:46;8.93;;;4.55;;
44110;SDS011;29774;52.664;5.074;2023-01-29T11:36:50;7.75;;;4.43;;
44110;SDS011;29774;52.664;5.074;2023-01-29T11:41:42;7.88;;;4.80;;
44110;SDS011;29774;52.664;5.074;2023-01-29T11:44:19;9.30;;;4.82;;
44110;SDS011;29774;52.664;5.074;2023-01-29T11:47:10;7.55;;;4.80;;
44110;SDS011;29774;52.664;5.074;2023-01-29T11:49:47;8.70;;;4.07;;
44110;SDS011;29774;52.664;5.074;2023-01-29T11:52:15;6.68;;;5.07;;
44110;SDS011;29774;52.664;5.074;2023-01-29T11:54:58;5.15;;;3.72;;
44110;SDS011;29774;52.664;5.074;2023-01-29T12:00:02;6.40;;;4.43;;
44110;SDS011;29774;52.664;5.074;2023-01-29T12:05:15;8.20;;;4.97;;
44110;SDS011;29774;52.664;5.074;2023-01-29T12:07:43;4.95;;;3.42;;
44110;SDS011;29774;52.664;5.074;2023-01-29T12:13:25;6.35;;;4.07;;
44110;SDS011;29774;52.664;5.074;2023-01-29T12:15:50;5.55;;;4.32;;
44110;SDS011;29774;52.664;5.074;2023-01-29T12:19:12;8.30;;;5.65;;
44110;SDS011;29774;52.664;5.074;2023-01-29T12:21:52;11.57;;;5.60;;
44110;SDS011;29774;52.664;5.074;2023-01-29T12:24:28;9.15;;;5.32;;
44110;SDS011;29774;52.664;5.074;2023-01-29T12:27:14;9.98;;;4.63;;
44110;SDS011;29774;52.664;5.074;2023-01-29T12:29:51;8.43;;;4.32;;
44110;SDS011;29774;52.664;5.074;2023-01-29T12:35:34;10.40;;;5.80;;
44110;SDS011;29774;52.664;5.074;2023-01-29T12:38:21;7.47;;;4.50;;
44110;SDS011;29774;52.664;5.074;2023-01-29T12:41:04;6.07;;;4.18;;
44110;SDS011;29774;52.664;5.074;2023-01-29T12:43:36;6.13;;;4.10;;
44110;SDS011;29774;52.664;5.074;2023-01-29T12:46:09;5.88;;;3.83;;
44110;SDS011;29774;52.664;5.074;2023-01-29T12:48:41;6.13;;;3.80;;
44110;SDS011;29774;52.664;5.074;2023-01-29T12:51:12;5.85;;;3.97;;
44110;SDS011;29774;52.664;5.074;2023-01-29T12:53:44;7.43;;;4.38;;
44110;SDS011;29774;52.664;5.074;2023-01-29T12:56:28;5.55;;;3.67;;
44110;SDS011;29774;52.664;5.074;2023-01-29T12:58:59;5.68;;;3.80;;
44110;SDS011;29774;52.664;5.074;2023-01-29T13:01:35;5.03;;;2.70;;
44110;SDS011;29774;52.664;5.074;2023-01-29T13:04:13;5.82;;;3.83;;
44110;SDS011;29774;52.664;5.074;2023-01-29T13:06:50;5.93;;;3.53;;
44110;SDS011;29774;52.664;5.074;2023-01-29T13:09:22;6.38;;;3.75;;
44110;SDS011;29774;52.664;5.074;2023-01-29T13:11:53;6.07;;;4.05;;
44110;SDS011;29774;52.664;5.074;2023-01-29T13:17:11;4.72;;;3.78;;
44110;SDS011;29774;52.664;5.074;2023-01-29T13:19:42;4.30;;;3.22;;
44110;SDS011;29774;52.664;5.074;2023-01-29T13:22:16;3.85;;;3.38;;
44110;SDS011;29774;52.664;5.074;2023-01-29T13:24:48;5.53;;;3.22;;
44110;SDS011;29774;52.664;5.074;2023-01-29T13:27:17;6.90;;;4.50;;
44110;SDS011;29774;52.664;5.074;2023-01-29T13:29:52;5.55;;;3.53;;
44110;SDS011;29774;52.664;5.074;2023-01-29T13:32:29;6.03;;;3.95;;
44110;SDS011;29774;52.664;5.074;2023-01-29T13:35:02;6.03;;;4.32;;
44110;SDS011;29774;52.664;5.074;2023-01-29T13:37:34;6.22;;;4.50;;
44110;SDS011;29774;52.664;5.074;2023-01-29T13:40:03;7.30;;;5.00;;
44110;SDS011;29774;52.664;5.074;2023-01-29T13:42:43;9.02;;;4.47;;
44110;SDS011;29774;52.664;5.074;2023-01-29T13:48:09;11.75;;;4.60;;
44110;SDS011;29774;52.664;5.074;2023-01-29T13:50:50;5.40;;;3.60;;
44110;SDS011;29774;52.664;5.074;2023-01-29T13:53:22;5.20;;;3.72;;
44110;SDS011;29774;52.664;5.074;2023-01-29T13:55:49;8.45;;;3.97;;
44110;SDS011;29774;52.664;5.074;2023-01-29T14:00:56;7.85;;;4.80;;
44110;SDS011;29774;52.664;5.074;2023-01-29T14:13:43;9.93;;;4.95;;
44110;SDS011;29774;52.664;5.074;2023-01-29T14:18:55;9.30;;;5.35;;
44110;SDS011;29774;52.664;5.074;2023-01-29T14:21:25;5.97;;;3.63;;
44110;SDS011;29774;52.664;5.074;2023-01-29T14:23:58;9.98;;;5.00;;
44110;SDS011;29774;52.664;5.074;2023-01-29T14:26:47;7.55;;;4.20;;
44110;SDS011;29774;52.664;5.074;2023-01-29T14:29:25;9.77;;;6.18;;
44110;SDS011;29774;52.664;5.074;2023-01-29T14:31:59;8.38;;;4.30;;
44110;SDS011;29774;52.664;5.074;2023-01-29T14:34:32;11.57;;;6.00;;
44110;SDS011;29774;52.664;5.074;2023-01-29T14:37:03;13.55;;;6.03;;
44110;SDS011;29774;52.664;5.074;2023-01-29T14:39:44;9.43;;;5.35;;
44110;SDS011;29774;52.664;5.074;2023-01-29T14:42:23;14.10;;;6.50;;
44110;SDS011;29774;52.664;5.074;2023-01-29T14:47:54;14.70;;;7.40;;
44110;SDS011;29774;52.664;5.074;2023-01-29T14:52:53;6.50;;;4.10;;
44110;SDS011;29774;52.664;5.074;2023-01-29T14:58:15;11.90;;;5.25;;
44110;SDS011;29774;52.664;5.074;2023-01-29T15:00:52;11.27;;;6.70;;
44110;SDS011;29774;52.664;5.074;2023-01-29T15:03:40;8.52;;;5.63;;
44110;SDS011;29774;52.664;5.074;2023-01-29T15:06:15;11.23;;;6.35;;
44110;SDS011;29774;52.664;5.074;2023-01-29T15:12:10;12.43;;;7.00;;
44110;SDS011;29774;52.664;5.074;2023-01-29T15:14:33;12.85;;;6.97;;
44110;SDS011;29774;52.664;5.074;2023-01-29T15:19:37;10.60;;;5.95;;
44110;SDS011;29774;52.664;5.074;2023-01-29T15:22:11;10.68;;;5.70;;
44110;SDS011;29774;52.664;5.074;2023-01-29T15:24:38;11.00;;;5.18;;
44110;SDS011;29774;52.664;5.074;2023-01-29T15:27:08;14.73;;;6.80;;
44110;SDS011;29774;52.664;5.074;2023-01-29T15:29:42;13.25;;;7.45;;
44110;SDS011;29774;52.664;5.074;2023-01-29T15:34:59;12.30;;;7.00;;
44110;SDS011;29774;52.664;5.074;2023-01-29T15:37:30;9.52;;;4.35;;
44110;SDS011;29774;52.664;5.074;2023-01-29T15:39:57;13.32;;;6.60;;
44110;SDS011;29774;52.664;5.074;2023-01-29T15:42:25;11.95;;;6.75;;
44110;SDS011;29774;52.664;5.074;2023-01-29T15:44:53;13.20;;;7.20;;
44110;SDS011;29774;52.664;5.074;2023-01-29T15:47:23;10.55;;;7.20;;
44110;SDS011;29774;52.664;5.074;2023-01-29T15:49:52;12.23;;;6.93;;
44110;SDS011;29774;52.664;5.074;2023-01-29T15:52:28;10.23;;;6.18;;
44110;SDS011;29774;52.664;5.074;2023-01-29T15:55:01;11.95;;;7.30;;
44110;SDS011;29774;52.664;5.074;2023-01-29T15:57:32;12.23;;;7.70;;
44110;SDS011;29774;52.664;5.074;2023-01-29T16:00:06;13.52;;;7.60;;
44110;SDS011;29774;52.664;5.074;2023-01-29T16:02:42;18.48;;;7.45;;
44110;SDS011;29774;52.664;5.074;2023-01-29T16:05:15;9.88;;;6.10;;
44110;SDS011;29774;52.664;5.074;2023-01-29T16:07:48;13.55;;;6.03;;
44110;SDS011;29774;52.664;5.074;2023-01-29T16:10:16;13.00;;;7.93;;
44110;SDS011;29774;52.664;5.074;2023-01-29T16:12:44;11.52;;;6.93;;
44110;SDS011;29774;52.664;5.074;2023-01-29T16:18:28;10.77;;;5.72;;
44110;SDS011;29774;52.664;5.074;2023-01-29T16:20:54;14.48;;;5.53;;
44110;SDS011;29774;52.664;5.074;2023-01-29T16:23:23;11.98;;;6.10;;
44110;SDS011;29774;52.664;5.074;2023-01-29T16:25:52;12.50;;;6.28;;
44110;SDS011;29774;52.664;5.074;2023-01-29T16:28:19;8.93;;;4.60;;
44110;SDS011;29774;52.664;5.074;2023-01-29T16:30:45;10.30;;;4.72;;
44110;SDS011;29774;52.664;5.074;2023-01-29T16:33:12;8.27;;;3.78;;
44110;SDS011;29774;52.664;5.074;2023-01-29T16:35:39;7.05;;;3.25;;
44110;SDS011;29774;52.664;5.074;2023-01-29T16:38:12;7.30;;;2.85;;
44110;SDS011;29774;52.664;5.074;2023-01-29T16:41:15;8.77;;;2.85;;
44110;SDS011;29774;52.664;5.074;2023-01-29T16:43:52;6.88;;;2.63;;
44110;SDS011;29774;52.664;5.074;2023-01-29T16:46:44;6.63;;;2.97;;
44110;SDS011;29774;52.664;5.074;2023-01-29T16:51:55;4.88;;;2.80;;
44110;SDS011;29774;52.664;5.074;2023-01-29T16:54:40;6.35;;;2.80;;
44110;SDS011;29774;52.664;5.074;2023-01-29T16:57:10;6.05;;;2.53;;
44110;SDS011;29774;52.664;5.074;2023-01-29T16:59:40;4.50;;;2.60;;
44110;SDS011;29774;52.664;5.074;2023-01-29T17:02:23;4.95;;;2.70;;
44110;SDS011;29774;52.664;5.074;2023-01-29T17:04:51;6.45;;;3.10;;
44110;SDS011;29774;52.664;5.074;2023-01-29T17:07:20;7.78;;;2.83;;
44110;SDS011;29774;52.664;5.074;2023-01-29T17:09:48;8.85;;;3.42;;
44110;SDS011;29774;52.664;5.074;2023-01-29T17:12:18;7.20;;;2.38;;
44110;SDS011;29774;52.664;5.074;2023-01-29T17:15:46;10.52;;;3.00;;
44110;SDS011;29774;52.664;5.074;2023-01-29T17:17:52;5.70;;;2.78;;